sensor_id;sensor_type;location;lat;lon;timestamp;P1;durP1;ratioP1;P2;durP2;ratioP2
48613;SDS011;34408;51.426;5.444;2023-05-07T00:00:29;3.03;;;2.10;;
48613;SDS011;34408;51.426;5.444;2023-05-07T00:02:57;3.13;;;1.90;;
48613;SDS011;34408;51.426;5.444;2023-05-07T00:05:26;4.72;;;2.33;;
48613;SDS011;34408;51.426;5.444;2023-05-07T00:07:54;5.65;;;2.00;;
48613;SDS011;34408;51.426;5.444;2023-05-07T00:10:25;3.75;;;2.13;;
48613;SDS011;34408;51.426;5.444;2023-05-07T00:12:53;4.03;;;2.22;;
48613;SDS011;34408;51.426;5.444;2023-05-07T00:15:20;5.38;;;2.30;;
48613;SDS011;34408;51.426;5.444;2023-05-07T00:17:48;4.65;;;2.15;;
48613;SDS011;34408;51.426;5.444;2023-05-07T00:20:16;6.15;;;2.92;;
48613;SDS011;34408;51.426;5.444;2023-05-07T00:22:45;4.30;;;2.50;;
48613;SDS011;34408;51.426;5.444;2023-05-07T00:25:13;6.22;;;2.53;;
48613;SDS011;34408;51.426;5.444;2023-05-07T00:27:41;3.45;;;2.25;;
48613;SDS011;34408;51.426;5.444;2023-05-07T00:30:09;6.03;;;2.58;;
48613;SDS011;34408;51.426;5.444;2023-05-07T00:32:38;4.88;;;2.70;;
48613;SDS011;34408;51.426;5.444;2023-05-07T00:35:08;4.38;;;2.72;;
48613;SDS011;34408;51.426;5.444;2023-05-07T00:37:36;5.07;;;2.83;;
48613;SDS011;34408;51.426;5.444;2023-05-07T00:40:06;5.55;;;2.90;;
48613;SDS011;34408;51.426;5.444;2023-05-07T00:42:35;4.63;;;2.60;;
48613;SDS011;34408;51.426;5.444;2023-05-07T00:45:04;5.05;;;2.85;;
48613;SDS011;34408;51.426;5.444;2023-05-07T00:47:32;4.93;;;3.17;;
48613;SDS011;34408;51.426;5.444;2023-05-07T00:50:00;3.53;;;2.60;;
48613;SDS011;34408;51.426;5.444;2023-05-07T00:52:28;4.80;;;3.15;;
48613;SDS011;34408;51.426;5.444;2023-05-07T00:54:57;3.25;;;2.60;;
48613;SDS011;34408;51.426;5.444;2023-05-07T00:57:26;4.53;;;2.60;;
48613;SDS011;34408;51.426;5.444;2023-05-07T00:59:54;5.13;;;3.42;;
48613;SDS011;34408;51.426;5.444;2023-05-07T01:02:21;4.97;;;3.28;;
48613;SDS011;34408;51.426;5.444;2023-05-07T01:04:49;5.60;;;3.05;;
48613;SDS011;34408;51.426;5.444;2023-05-07T01:07:17;6.30;;;3.55;;
48613;SDS011;34408;51.426;5.444;2023-05-07T01:09:45;6.07;;;3.13;;
48613;SDS011;34408;51.426;5.444;2023-05-07T01:12:13;4.88;;;3.20;;
48613;SDS011;34408;51.426;5.444;2023-05-07T01:14:43;4.65;;;3.33;;
48613;SDS011;34408;51.426;5.444;2023-05-07T01:17:11;7.72;;;3.47;;
48613;SDS011;34408;51.426;5.444;2023-05-07T01:19:39;7.57;;;3.90;;
48613;SDS011;34408;51.426;5.444;2023-05-07T01:22:07;5.88;;;3.75;;
48613;SDS011;34408;51.426;5.444;2023-05-07T01:24:38;7.85;;;3.83;;
48613;SDS011;34408;51.426;5.444;2023-05-07T01:27:06;4.88;;;3.20;;
48613;SDS011;34408;51.426;5.444;2023-05-07T01:29:33;5.95;;;3.60;;
48613;SDS011;34408;51.426;5.444;2023-05-07T01:32:01;5.97;;;3.50;;
48613;SDS011;34408;51.426;5.444;2023-05-07T01:34:31;6.40;;;3.83;;
48613;SDS011;34408;51.426;5.444;2023-05-07T01:37:01;6.28;;;4.05;;
48613;SDS011;34408;51.426;5.444;2023-05-07T01:39:30;6.35;;;3.97;;
48613;SDS011;34408;51.426;5.444;2023-05-07T01:42:00;5.40;;;3.35;;
48613;SDS011;34408;51.426;5.444;2023-05-07T01:44:27;6.43;;;4.22;;
48613;SDS011;34408;51.426;5.444;2023-05-07T01:46:56;9.43;;;4.28;;
48613;SDS011;34408;51.426;5.444;2023-05-07T01:49:24;7.32;;;3.72;;
48613;SDS011;34408;51.426;5.444;2023-05-07T01:51:52;7.35;;;3.95;;
48613;SDS011;34408;51.426;5.444;2023-05-07T01:54:24;6.47;;;3.90;;
48613;SDS011;34408;51.426;5.444;2023-05-07T01:56:54;7.97;;;4.57;;
48613;SDS011;34408;51.426;5.444;2023-05-07T01:59:24;5.93;;;3.80;;
48613;SDS011;34408;51.426;5.444;2023-05-07T02:01:52;6.72;;;4.07;;
48613;SDS011;34408;51.426;5.444;2023-05-07T02:04:20;8.75;;;4.05;;
48613;SDS011;34408;51.426;5.444;2023-05-07T02:06:48;7.13;;;4.13;;
48613;SDS011;34408;51.426;5.444;2023-05-07T02:09:16;6.30;;;4.13;;
48613;SDS011;34408;51.426;5.444;2023-05-07T02:11:44;6.72;;;4.20;;
48613;SDS011;34408;51.426;5.444;2023-05-07T02:14:11;7.28;;;4.10;;
48613;SDS011;34408;51.426;5.444;2023-05-07T02:16:40;6.10;;;4.32;;
48613;SDS011;34408;51.426;5.444;2023-05-07T02:19:08;8.00;;;4.10;;
48613;SDS011;34408;51.426;5.444;2023-05-07T02:21:36;7.32;;;5.00;;
48613;SDS011;34408;51.426;5.444;2023-05-07T02:24:04;5.85;;;4.03;;
48613;SDS011;34408;51.426;5.444;2023-05-07T02:26:32;7.10;;;4.28;;
48613;SDS011;34408;51.426;5.444;2023-05-07T02:29:00;7.57;;;4.90;;
48613;SDS011;34408;51.426;5.444;2023-05-07T02:31:28;7.18;;;4.63;;
48613;SDS011;34408;51.426;5.444;2023-05-07T02:33:57;5.85;;;3.92;;
48613;SDS011;34408;51.426;5.444;2023-05-07T02:36:24;7.30;;;4.43;;
48613;SDS011;34408;51.426;5.444;2023-05-07T02:38:52;8.18;;;5.35;;
48613;SDS011;34408;51.426;5.444;2023-05-07T02:41:20;6.53;;;4.78;;
48613;SDS011;34408;51.426;5.444;2023-05-07T02:43:48;6.93;;;4.60;;
48613;SDS011;34408;51.426;5.444;2023-05-07T02:46:16;8.98;;;5.32;;
48613;SDS011;34408;51.426;5.444;2023-05-07T02:48:44;7.63;;;4.97;;
48613;SDS011;34408;51.426;5.444;2023-05-07T02:51:13;7.40;;;5.20;;
48613;SDS011;34408;51.426;5.444;2023-05-07T02:53:41;7.47;;;4.97;;
48613;SDS011;34408;51.426;5.444;2023-05-07T02:56:08;7.22;;;4.50;;
48613;SDS011;34408;51.426;5.444;2023-05-07T02:58:36;8.40;;;5.43;;
48613;SDS011;34408;51.426;5.444;2023-05-07T03:01:05;6.93;;;4.57;;
48613;SDS011;34408;51.426;5.444;2023-05-07T03:03:33;9.05;;;5.38;;
48613;SDS011;34408;51.426;5.444;2023-05-07T03:06:01;8.68;;;5.15;;
48613;SDS011;34408;51.426;5.444;2023-05-07T03:08:31;7.43;;;4.85;;
48613;SDS011;34408;51.426;5.444;2023-05-07T03:10:58;6.68;;;4.70;;
48613;SDS011;34408;51.426;5.444;2023-05-07T03:13:26;6.88;;;4.95;;
48613;SDS011;34408;51.426;5.444;2023-05-07T03:15:54;8.27;;;5.25;;
48613;SDS011;34408;51.426;5.444;2023-05-07T03:18:22;8.45;;;4.75;;
48613;SDS011;34408;51.426;5.444;2023-05-07T03:20:51;6.95;;;5.28;;
48613;SDS011;34408;51.426;5.444;2023-05-07T03:23:19;6.07;;;4.68;;
48613;SDS011;34408;51.426;5.444;2023-05-07T03:25:51;7.47;;;4.90;;
48613;SDS011;34408;51.426;5.444;2023-05-07T03:28:19;7.15;;;4.72;;
48613;SDS011;34408;51.426;5.444;2023-05-07T03:30:46;8.82;;;5.28;;
48613;SDS011;34408;51.426;5.444;2023-05-07T03:33:14;6.60;;;5.10;;
48613;SDS011;34408;51.426;5.444;2023-05-07T03:35:42;10.30;;;5.00;;
48613;SDS011;34408;51.426;5.444;2023-05-07T03:38:10;7.85;;;5.80;;
48613;SDS011;34408;51.426;5.444;2023-05-07T03:40:38;6.88;;;5.43;;
48613;SDS011;34408;51.426;5.444;2023-05-07T03:43:07;8.25;;;5.65;;
48613;SDS011;34408;51.426;5.444;2023-05-07T03:45:35;7.13;;;5.30;;
48613;SDS011;34408;51.426;5.444;2023-05-07T03:48:03;7.13;;;4.97;;
48613;SDS011;34408;51.426;5.444;2023-05-07T03:50:31;9.05;;;5.63;;
48613;SDS011;34408;51.426;5.444;2023-05-07T03:52:59;6.90;;;4.68;;
48613;SDS011;34408;51.426;5.444;2023-05-07T03:55:26;7.40;;;4.90;;
48613;SDS011;34408;51.426;5.444;2023-05-07T03:57:55;7.63;;;5.15;;
48613;SDS011;34408;51.426;5.444;2023-05-07T04:00:24;7.45;;;5.15;;
48613;SDS011;34408;51.426;5.444;2023-05-07T04:02:52;8.90;;;5.55;;
48613;SDS011;34408;51.426;5.444;2023-05-07T04:05:20;6.20;;;4.63;;
48613;SDS011;34408;51.426;5.444;2023-05-07T04:07:48;7.75;;;5.28;;
48613;SDS011;34408;51.426;5.444;2023-05-07T04:10:16;7.13;;;5.05;;
48613;SDS011;34408;51.426;5.444;2023-05-07T04:12:44;7.70;;;5.78;;
48613;SDS011;34408;51.426;5.444;2023-05-07T04:15:12;10.38;;;5.43;;
48613;SDS011;34408;51.426;5.444;2023-05-07T04:17:41;8.73;;;5.85;;
48613;SDS011;34408;51.426;5.444;2023-05-07T04:20:10;6.97;;;4.80;;
48613;SDS011;34408;51.426;5.444;2023-05-07T04:22:43;7.15;;;5.32;;
48613;SDS011;34408;51.426;5.444;2023-05-07T04:25:11;7.13;;;5.13;;
48613;SDS011;34408;51.426;5.444;2023-05-07T04:27:39;8.05;;;5.22;;
48613;SDS011;34408;51.426;5.444;2023-05-07T04:30:08;9.95;;;5.50;;
48613;SDS011;34408;51.426;5.444;2023-05-07T04:32:36;7.88;;;5.50;;
48613;SDS011;34408;51.426;5.444;2023-05-07T04:35:07;8.57;;;5.50;;
48613;SDS011;34408;51.426;5.444;2023-05-07T04:37:35;7.00;;;5.47;;
48613;SDS011;34408;51.426;5.444;2023-05-07T04:40:03;9.30;;;5.30;;
48613;SDS011;34408;51.426;5.444;2023-05-07T04:42:31;8.82;;;5.20;;
48613;SDS011;34408;51.426;5.444;2023-05-07T04:44:59;8.05;;;5.00;;
48613;SDS011;34408;51.426;5.444;2023-05-07T04:47:27;7.63;;;5.40;;
48613;SDS011;34408;51.426;5.444;2023-05-07T04:49:56;11.38;;;4.90;;
48613;SDS011;34408;51.426;5.444;2023-05-07T04:52:26;9.10;;;5.43;;
48613;SDS011;34408;51.426;5.444;2023-05-07T04:54:54;7.82;;;5.20;;
48613;SDS011;34408;51.426;5.444;2023-05-07T04:57:22;7.38;;;5.10;;
48613;SDS011;34408;51.426;5.444;2023-05-07T04:59:49;6.75;;;4.88;;
48613;SDS011;34408;51.426;5.444;2023-05-07T05:02:18;7.60;;;5.70;;
48613;SDS011;34408;51.426;5.444;2023-05-07T05:04:46;9.05;;;5.88;;
48613;SDS011;34408;51.426;5.444;2023-05-07T05:07:14;7.50;;;5.68;;
48613;SDS011;34408;51.426;5.444;2023-05-07T05:09:43;8.32;;;5.57;;
48613;SDS011;34408;51.426;5.444;2023-05-07T05:12:11;10.35;;;5.80;;
48613;SDS011;34408;51.426;5.444;2023-05-07T05:14:39;10.38;;;5.47;;
48613;SDS011;34408;51.426;5.444;2023-05-07T05:17:06;9.15;;;5.65;;
48613;SDS011;34408;51.426;5.444;2023-05-07T05:19:34;8.57;;;5.93;;
48613;SDS011;34408;51.426;5.444;2023-05-07T05:22:02;8.57;;;5.60;;
48613;SDS011;34408;51.426;5.444;2023-05-07T05:24:31;9.15;;;5.57;;
48613;SDS011;34408;51.426;5.444;2023-05-07T05:27:00;6.78;;;5.13;;
48613;SDS011;34408;51.426;5.444;2023-05-07T05:29:28;7.07;;;4.93;;
48613;SDS011;34408;51.426;5.444;2023-05-07T05:31:57;8.13;;;4.88;;
48613;SDS011;34408;51.426;5.444;2023-05-07T05:34:26;9.35;;;6.00;;
48613;SDS011;34408;51.426;5.444;2023-05-07T05:36:54;7.72;;;4.72;;
48613;SDS011;34408;51.426;5.444;2023-05-07T05:39:21;8.30;;;5.38;;
48613;SDS011;34408;51.426;5.444;2023-05-07T05:41:50;7.47;;;5.53;;
48613;SDS011;34408;51.426;5.444;2023-05-07T05:44:19;9.30;;;5.65;;
48613;SDS011;34408;51.426;5.444;2023-05-07T05:46:47;9.15;;;5.18;;
48613;SDS011;34408;51.426;5.444;2023-05-07T05:49:16;7.07;;;5.28;;
48613;SDS011;34408;51.426;5.444;2023-05-07T05:51:43;7.38;;;5.10;;
48613;SDS011;34408;51.426;5.444;2023-05-07T05:54:12;8.35;;;5.72;;
48613;SDS011;34408;51.426;5.444;2023-05-07T05:56:40;7.47;;;5.25;;
48613;SDS011;34408;51.426;5.444;2023-05-07T05:59:08;8.20;;;5.45;;
48613;SDS011;34408;51.426;5.444;2023-05-07T06:01:38;7.00;;;5.05;;
48613;SDS011;34408;51.426;5.444;2023-05-07T06:04:06;6.93;;;5.20;;
48613;SDS011;34408;51.426;5.444;2023-05-07T06:06:34;6.03;;;4.63;;
48613;SDS011;34408;51.426;5.444;2023-05-07T06:09:02;6.05;;;4.72;;
48613;SDS011;34408;51.426;5.444;2023-05-07T06:11:30;7.75;;;4.85;;
48613;SDS011;34408;51.426;5.444;2023-05-07T06:13:58;10.63;;;5.18;;
48613;SDS011;34408;51.426;5.444;2023-05-07T06:16:26;10.30;;;6.93;;
48613;SDS011;34408;51.426;5.444;2023-05-07T06:18:56;9.43;;;6.03;;
48613;SDS011;34408;51.426;5.444;2023-05-07T06:21:24;7.45;;;5.75;;
48613;SDS011;34408;51.426;5.444;2023-05-07T06:23:52;13.73;;;6.10;;
48613;SDS011;34408;51.426;5.444;2023-05-07T06:26:21;9.48;;;5.32;;
48613;SDS011;34408;51.426;5.444;2023-05-07T06:28:48;7.47;;;5.72;;
48613;SDS011;34408;51.426;5.444;2023-05-07T06:31:17;11.07;;;5.63;;
48613;SDS011;34408;51.426;5.444;2023-05-07T06:33:48;8.85;;;5.70;;
48613;SDS011;34408;51.426;5.444;2023-05-07T06:36:17;9.75;;;7.05;;
48613;SDS011;34408;51.426;5.444;2023-05-07T06:38:45;10.50;;;6.68;;
48613;SDS011;34408;51.426;5.444;2023-05-07T06:41:13;9.38;;;6.63;;
48613;SDS011;34408;51.426;5.444;2023-05-07T06:43:41;7.65;;;5.88;;
48613;SDS011;34408;51.426;5.444;2023-05-07T06:46:09;9.20;;;5.57;;
48613;SDS011;34408;51.426;5.444;2023-05-07T06:48:36;9.30;;;6.13;;
48613;SDS011;34408;51.426;5.444;2023-05-07T06:51:04;11.10;;;6.68;;
48613;SDS011;34408;51.426;5.444;2023-05-07T06:53:34;13.88;;;5.72;;
48613;SDS011;34408;51.426;5.444;2023-05-07T06:56:02;11.05;;;5.82;;
48613;SDS011;34408;51.426;5.444;2023-05-07T06:58:31;13.55;;;6.63;;
48613;SDS011;34408;51.426;5.444;2023-05-07T07:00:59;8.15;;;5.30;;
48613;SDS011;34408;51.426;5.444;2023-05-07T07:03:27;7.90;;;5.32;;
48613;SDS011;34408;51.426;5.444;2023-05-07T07:05:55;6.85;;;4.88;;
48613;SDS011;34408;51.426;5.444;2023-05-07T07:08:22;9.45;;;5.13;;
48613;SDS011;34408;51.426;5.444;2023-05-07T07:10:52;7.57;;;4.68;;
48613;SDS011;34408;51.426;5.444;2023-05-07T07:13:19;7.07;;;4.88;;
48613;SDS011;34408;51.426;5.444;2023-05-07T07:15:47;10.10;;;4.65;;
48613;SDS011;34408;51.426;5.444;2023-05-07T07:18:15;10.88;;;5.50;;
48613;SDS011;34408;51.426;5.444;2023-05-07T07:20:43;6.40;;;4.63;;
48613;SDS011;34408;51.426;5.444;2023-05-07T07:23:11;6.30;;;4.10;;
48613;SDS011;34408;51.426;5.444;2023-05-07T07:25:39;6.35;;;4.68;;
48613;SDS011;34408;51.426;5.444;2023-05-07T07:28:09;10.63;;;4.32;;
48613;SDS011;34408;51.426;5.444;2023-05-07T07:30:36;6.60;;;4.72;;
48613;SDS011;34408;51.426;5.444;2023-05-07T07:33:05;7.50;;;4.32;;
48613;SDS011;34408;51.426;5.444;2023-05-07T07:35:33;6.55;;;4.53;;
48613;SDS011;34408;51.426;5.444;2023-05-07T07:38:01;9.20;;;5.63;;
48613;SDS011;34408;51.426;5.444;2023-05-07T07:40:29;7.05;;;5.03;;
48613;SDS011;34408;51.426;5.444;2023-05-07T07:42:56;5.72;;;4.10;;
48613;SDS011;34408;51.426;5.444;2023-05-07T07:45:26;6.63;;;4.68;;
48613;SDS011;34408;51.426;5.444;2023-05-07T07:47:54;7.05;;;3.75;;
48613;SDS011;34408;51.426;5.444;2023-05-07T07:50:22;6.53;;;4.50;;
48613;SDS011;34408;51.426;5.444;2023-05-07T07:53:08;9.85;;;5.68;;
48613;SDS011;34408;51.426;5.444;2023-05-07T07:55:37;6.88;;;4.78;;
48613;SDS011;34408;51.426;5.444;2023-05-07T07:58:06;9.55;;;5.10;;
48613;SDS011;34408;51.426;5.444;2023-05-07T08:00:35;10.18;;;5.43;;
48613;SDS011;34408;51.426;5.444;2023-05-07T08:03:03;9.75;;;5.38;;
48613;SDS011;34408;51.426;5.444;2023-05-07T08:05:33;7.65;;;4.90;;
48613;SDS011;34408;51.426;5.444;2023-05-07T08:08:01;7.95;;;5.30;;
48613;SDS011;34408;51.426;5.444;2023-05-07T08:10:29;8.45;;;5.45;;
48613;SDS011;34408;51.426;5.444;2023-05-07T08:13:01;8.02;;;5.55;;
48613;SDS011;34408;51.426;5.444;2023-05-07T08:15:30;11.68;;;5.75;;
48613;SDS011;34408;51.426;5.444;2023-05-07T08:17:59;9.77;;;5.15;;
48613;SDS011;34408;51.426;5.444;2023-05-07T08:20:28;9.48;;;4.07;;
48613;SDS011;34408;51.426;5.444;2023-05-07T08:22:56;7.57;;;5.18;;
48613;SDS011;34408;51.426;5.444;2023-05-07T08:25:24;8.43;;;6.35;;
48613;SDS011;34408;51.426;5.444;2023-05-07T08:27:52;7.35;;;5.45;;
48613;SDS011;34408;51.426;5.444;2023-05-07T08:30:20;8.23;;;6.88;;
48613;SDS011;34408;51.426;5.444;2023-05-07T08:32:48;6.72;;;5.30;;
48613;SDS011;34408;51.426;5.444;2023-05-07T08:35:18;8.57;;;4.78;;
48613;SDS011;34408;51.426;5.444;2023-05-07T08:37:46;9.20;;;4.93;;
48613;SDS011;34408;51.426;5.444;2023-05-07T08:40:14;6.22;;;4.20;;
48613;SDS011;34408;51.426;5.444;2023-05-07T08:42:42;8.20;;;4.75;;
48613;SDS011;34408;51.426;5.444;2023-05-07T08:45:12;6.30;;;4.97;;
48613;SDS011;34408;51.426;5.444;2023-05-07T08:47:42;5.88;;;3.90;;
48613;SDS011;34408;51.426;5.444;2023-05-07T08:50:12;6.03;;;4.05;;
48613;SDS011;34408;51.426;5.444;2023-05-07T08:52:42;7.43;;;4.65;;
48613;SDS011;34408;51.426;5.444;2023-05-07T08:55:10;7.15;;;5.05;;
48613;SDS011;34408;51.426;5.444;2023-05-07T08:57:38;5.88;;;4.53;;
48613;SDS011;34408;51.426;5.444;2023-05-07T09:00:07;8.27;;;5.63;;
48613;SDS011;34408;51.426;5.444;2023-05-07T09:02:36;6.57;;;4.68;;
48613;SDS011;34408;51.426;5.444;2023-05-07T09:05:04;8.65;;;5.25;;
48613;SDS011;34408;51.426;5.444;2023-05-07T09:07:33;10.48;;;5.47;;
48613;SDS011;34408;51.426;5.444;2023-05-07T09:10:03;5.68;;;4.25;;
48613;SDS011;34408;51.426;5.444;2023-05-07T09:12:32;7.22;;;4.63;;
48613;SDS011;34408;51.426;5.444;2023-05-07T09:15:01;7.68;;;5.28;;
48613;SDS011;34408;51.426;5.444;2023-05-07T09:17:29;7.68;;;4.57;;
48613;SDS011;34408;51.426;5.444;2023-05-07T09:20:01;7.57;;;4.90;;
48613;SDS011;34408;51.426;5.444;2023-05-07T09:22:32;6.03;;;4.20;;
48613;SDS011;34408;51.426;5.444;2023-05-07T09:25:00;5.97;;;3.55;;
48613;SDS011;34408;51.426;5.444;2023-05-07T09:27:29;6.15;;;4.15;;
48613;SDS011;34408;51.426;5.444;2023-05-07T09:29:57;7.35;;;4.05;;
48613;SDS011;34408;51.426;5.444;2023-05-07T09:32:25;6.70;;;3.97;;
48613;SDS011;34408;51.426;5.444;2023-05-07T09:34:53;8.57;;;4.93;;
48613;SDS011;34408;51.426;5.444;2023-05-07T09:37:21;5.60;;;4.40;;
48613;SDS011;34408;51.426;5.444;2023-05-07T09:39:49;6.20;;;4.10;;
48613;SDS011;34408;51.426;5.444;2023-05-07T09:42:22;5.40;;;3.88;;
48613;SDS011;34408;51.426;5.444;2023-05-07T09:44:52;8.77;;;3.63;;
48613;SDS011;34408;51.426;5.444;2023-05-07T09:47:20;4.80;;;3.15;;
48613;SDS011;34408;51.426;5.444;2023-05-07T09:49:54;5.38;;;3.83;;
48613;SDS011;34408;51.426;5.444;2023-05-07T09:52:24;18.48;;;8.57;;
48613;SDS011;34408;51.426;5.444;2023-05-07T09:54:59;12.20;;;7.00;;
48613;SDS011;34408;51.426;5.444;2023-05-07T09:57:29;11.57;;;7.28;;
48613;SDS011;34408;51.426;5.444;2023-05-07T10:00:00;12.38;;;7.07;;
48613;SDS011;34408;51.426;5.444;2023-05-07T10:02:34;8.65;;;6.18;;
48613;SDS011;34408;51.426;5.444;2023-05-07T10:05:03;10.75;;;6.88;;
48613;SDS011;34408;51.426;5.444;2023-05-07T10:07:32;10.95;;;6.82;;
48613;SDS011;34408;51.426;5.444;2023-05-07T10:10:00;8.43;;;6.80;;
48613;SDS011;34408;51.426;5.444;2023-05-07T10:12:30;12.68;;;6.65;;
48613;SDS011;34408;51.426;5.444;2023-05-07T10:15:06;9.00;;;6.15;;
48613;SDS011;34408;51.426;5.444;2023-05-07T10:17:35;8.95;;;6.53;;
48613;SDS011;34408;51.426;5.444;2023-05-07T10:20:05;9.82;;;6.22;;
48613;SDS011;34408;51.426;5.444;2023-05-07T10:22:47;12.15;;;6.70;;
48613;SDS011;34408;51.426;5.444;2023-05-07T10:25:18;8.07;;;6.00;;
48613;SDS011;34408;51.426;5.444;2023-05-07T10:27:58;9.10;;;5.93;;
48613;SDS011;34408;51.426;5.444;2023-05-07T10:30:32;10.45;;;6.85;;
48613;SDS011;34408;51.426;5.444;2023-05-07T10:33:09;12.10;;;7.80;;
48613;SDS011;34408;51.426;5.444;2023-05-07T10:35:39;13.63;;;7.85;;
48613;SDS011;34408;51.426;5.444;2023-05-07T10:38:10;8.93;;;6.55;;
48613;SDS011;34408;51.426;5.444;2023-05-07T10:40:38;9.95;;;6.60;;
48613;SDS011;34408;51.426;5.444;2023-05-07T10:43:07;16.10;;;7.03;;
48613;SDS011;34408;51.426;5.444;2023-05-07T10:45:37;11.68;;;6.40;;
48613;SDS011;34408;51.426;5.444;2023-05-07T10:48:06;14.90;;;7.05;;
48613;SDS011;34408;51.426;5.444;2023-05-07T10:51:17;8.85;;;6.43;;
48613;SDS011;34408;51.426;5.444;2023-05-07T10:53:47;7.97;;;5.88;;
48613;SDS011;34408;51.426;5.444;2023-05-07T10:56:24;10.23;;;5.20;;
48613;SDS011;34408;51.426;5.444;2023-05-07T10:58:54;9.55;;;6.38;;
48613;SDS011;34408;51.426;5.444;2023-05-07T11:04:20;7.35;;;5.45;;
48613;SDS011;34408;51.426;5.444;2023-05-07T11:09:58;7.57;;;5.53;;
48613;SDS011;34408;51.426;5.444;2023-05-07T11:12:47;10.60;;;5.57;;
48613;SDS011;34408;51.426;5.444;2023-05-07T11:15:34;10.55;;;5.03;;
48613;SDS011;34408;51.426;5.444;2023-05-07T11:18:14;10.52;;;6.35;;
48613;SDS011;34408;51.426;5.444;2023-05-07T11:20:44;9.60;;;6.20;;
48613;SDS011;34408;51.426;5.444;2023-05-07T11:26:27;7.68;;;4.60;;
48613;SDS011;34408;51.426;5.444;2023-05-07T11:28:57;7.88;;;5.15;;
48613;SDS011;34408;51.426;5.444;2023-05-07T11:31:27;8.82;;;4.55;;
48613;SDS011;34408;51.426;5.444;2023-05-07T11:33:57;9.07;;;4.85;;
48613;SDS011;34408;51.426;5.444;2023-05-07T11:36:30;11.55;;;5.43;;
48613;SDS011;34408;51.426;5.444;2023-05-07T11:38:59;9.00;;;5.20;;
48613;SDS011;34408;51.426;5.444;2023-05-07T11:41:33;9.98;;;5.22;;
48613;SDS011;34408;51.426;5.444;2023-05-07T11:44:03;7.80;;;4.87;;
48613;SDS011;34408;51.426;5.444;2023-05-07T11:46:31;9.52;;;5.30;;
48613;SDS011;34408;51.426;5.444;2023-05-07T11:49:01;12.48;;;5.60;;
48613;SDS011;34408;51.426;5.444;2023-05-07T11:51:29;10.75;;;4.63;;
48613;SDS011;34408;51.426;5.444;2023-05-07T11:53:57;8.85;;;5.30;;
48613;SDS011;34408;51.426;5.444;2023-05-07T11:56:26;8.98;;;5.30;;
48613;SDS011;34408;51.426;5.444;2023-05-07T11:58:53;8.20;;;4.68;;
48613;SDS011;34408;51.426;5.444;2023-05-07T12:01:21;8.05;;;6.03;;
48613;SDS011;34408;51.426;5.444;2023-05-07T12:03:49;10.85;;;6.85;;
48613;SDS011;34408;51.426;5.444;2023-05-07T12:06:18;11.60;;;4.95;;
48613;SDS011;34408;51.426;5.444;2023-05-07T12:08:46;9.13;;;5.70;;
48613;SDS011;34408;51.426;5.444;2023-05-07T12:11:15;10.73;;;5.43;;
48613;SDS011;34408;51.426;5.444;2023-05-07T12:13:44;10.57;;;5.18;;
48613;SDS011;34408;51.426;5.444;2023-05-07T12:16:12;8.18;;;4.35;;
48613;SDS011;34408;51.426;5.444;2023-05-07T12:18:41;6.25;;;3.78;;
48613;SDS011;34408;51.426;5.444;2023-05-07T12:21:10;5.82;;;3.33;;
48613;SDS011;34408;51.426;5.444;2023-05-07T12:23:40;8.45;;;3.58;;
48613;SDS011;34408;51.426;5.444;2023-05-07T12:26:08;5.57;;;3.38;;
48613;SDS011;34408;51.426;5.444;2023-05-07T12:28:37;9.98;;;3.95;;
48613;SDS011;34408;51.426;5.444;2023-05-07T12:31:06;9.00;;;3.58;;
48613;SDS011;34408;51.426;5.444;2023-05-07T12:33:34;9.43;;;3.72;;
48613;SDS011;34408;51.426;5.444;2023-05-07T12:36:03;11.82;;;4.43;;
48613;SDS011;34408;51.426;5.444;2023-05-07T12:38:37;11.38;;;3.08;;
48613;SDS011;34408;51.426;5.444;2023-05-07T12:41:08;9.05;;;3.88;;
48613;SDS011;34408;51.426;5.444;2023-05-07T12:43:37;8.13;;;3.22;;
48613;SDS011;34408;51.426;5.444;2023-05-07T12:46:05;8.65;;;2.22;;
48613;SDS011;34408;51.426;5.444;2023-05-07T12:48:36;7.07;;;2.95;;
48613;SDS011;34408;51.426;5.444;2023-05-07T12:51:05;6.72;;;3.00;;
48613;SDS011;34408;51.426;5.444;2023-05-07T12:53:33;8.30;;;3.20;;
48613;SDS011;34408;51.426;5.444;2023-05-07T12:56:09;7.13;;;2.90;;
48613;SDS011;34408;51.426;5.444;2023-05-07T12:58:36;6.55;;;2.50;;
48613;SDS011;34408;51.426;5.444;2023-05-07T13:01:05;5.20;;;2.20;;
48613;SDS011;34408;51.426;5.444;2023-05-07T13:03:37;4.78;;;2.15;;
48613;SDS011;34408;51.426;5.444;2023-05-07T13:06:06;7.80;;;2.90;;
48613;SDS011;34408;51.426;5.444;2023-05-07T13:08:39;9.68;;;2.35;;
48613;SDS011;34408;51.426;5.444;2023-05-07T13:11:11;4.13;;;2.05;;
48613;SDS011;34408;51.426;5.444;2023-05-07T13:13:40;6.68;;;2.10;;
48613;SDS011;34408;51.426;5.444;2023-05-07T13:16:09;7.65;;;3.40;;
48613;SDS011;34408;51.426;5.444;2023-05-07T13:18:39;7.68;;;2.75;;
48613;SDS011;34408;51.426;5.444;2023-05-07T13:21:10;5.30;;;2.20;;
48613;SDS011;34408;51.426;5.444;2023-05-07T13:23:39;10.75;;;2.30;;
48613;SDS011;34408;51.426;5.444;2023-05-07T13:26:07;4.88;;;2.00;;
48613;SDS011;34408;51.426;5.444;2023-05-07T13:28:53;6.07;;;2.15;;
48613;SDS011;34408;51.426;5.444;2023-05-07T13:31:21;5.00;;;1.52;;
48613;SDS011;34408;51.426;5.444;2023-05-07T13:33:48;6.30;;;1.90;;
48613;SDS011;34408;51.426;5.444;2023-05-07T13:36:17;7.57;;;2.45;;
48613;SDS011;34408;51.426;5.444;2023-05-07T13:38:44;8.55;;;1.83;;
48613;SDS011;34408;51.426;5.444;2023-05-07T13:41:12;3.83;;;1.85;;
48613;SDS011;34408;51.426;5.444;2023-05-07T13:43:41;5.75;;;2.00;;
48613;SDS011;34408;51.426;5.444;2023-05-07T13:46:10;4.35;;;1.60;;
48613;SDS011;34408;51.426;5.444;2023-05-07T13:48:38;4.35;;;2.10;;
48613;SDS011;34408;51.426;5.444;2023-05-07T13:51:06;7.03;;;2.17;;
48613;SDS011;34408;51.426;5.444;2023-05-07T13:53:34;4.57;;;1.60;;
48613;SDS011;34408;51.426;5.444;2023-05-07T13:56:02;5.88;;;2.20;;
48613;SDS011;34408;51.426;5.444;2023-05-07T13:58:31;6.10;;;2.05;;
48613;SDS011;34408;51.426;5.444;2023-05-07T14:00:59;7.25;;;2.15;;
48613;SDS011;34408;51.426;5.444;2023-05-07T14:03:28;6.05;;;2.83;;
48613;SDS011;34408;51.426;5.444;2023-05-07T14:05:58;5.22;;;2.30;;
48613;SDS011;34408;51.426;5.444;2023-05-07T14:08:27;2.97;;;1.83;;
48613;SDS011;34408;51.426;5.444;2023-05-07T14:10:57;4.63;;;2.80;;
48613;SDS011;34408;51.426;5.444;2023-05-07T14:13:25;3.60;;;2.00;;
48613;SDS011;34408;51.426;5.444;2023-05-07T14:15:53;4.53;;;2.03;;
48613;SDS011;34408;51.426;5.444;2023-05-07T14:18:21;5.13;;;2.40;;
48613;SDS011;34408;51.426;5.444;2023-05-07T14:20:50;5.30;;;2.70;;
48613;SDS011;34408;51.426;5.444;2023-05-07T14:23:18;6.70;;;3.45;;
48613;SDS011;34408;51.426;5.444;2023-05-07T14:25:48;8.25;;;3.10;;
48613;SDS011;34408;51.426;5.444;2023-05-07T14:28:16;5.00;;;2.78;;
48613;SDS011;34408;51.426;5.444;2023-05-07T14:30:44;5.32;;;2.38;;
48613;SDS011;34408;51.426;5.444;2023-05-07T14:33:12;5.13;;;2.75;;
48613;SDS011;34408;51.426;5.444;2023-05-07T14:35:39;5.82;;;3.10;;
48613;SDS011;34408;51.426;5.444;2023-05-07T14:38:09;8.68;;;4.18;;
48613;SDS011;34408;51.426;5.444;2023-05-07T14:40:36;7.35;;;4.60;;
48613;SDS011;34408;51.426;5.444;2023-05-07T14:43:04;9.20;;;4.90;;
48613;SDS011;34408;51.426;5.444;2023-05-07T14:45:32;9.40;;;5.22;;
48613;SDS011;34408;51.426;5.444;2023-05-07T14:48:01;6.18;;;4.00;;
48613;SDS011;34408;51.426;5.444;2023-05-07T14:50:29;13.27;;;4.57;;
48613;SDS011;34408;51.426;5.444;2023-05-07T14:52:57;7.18;;;4.20;;
48613;SDS011;34408;51.426;5.444;2023-05-07T14:55:26;7.93;;;3.38;;
48613;SDS011;34408;51.426;5.444;2023-05-07T14:57:55;5.65;;;4.07;;
48613;SDS011;34408;51.426;5.444;2023-05-07T15:00:23;6.75;;;3.88;;
48613;SDS011;34408;51.426;5.444;2023-05-07T15:02:51;6.75;;;3.80;;
48613;SDS011;34408;51.426;5.444;2023-05-07T15:05:19;10.30;;;4.35;;